Waukegan National Airport (UGN)


Airport Diagram
Current Weather/Forecast (MVFR Conditions)
METAR KUGN 252355Z 28005KT 10SM SCT012 BKN020 OVC031 02/M01 A2983 RMK AO2 SLP111 60008 T00171011 10017 20011 53013 $
TAF

All Charts
General
Chart Name Download
AIRPORT DIAGRAM
TAKEOFF MINIMUMS
ALTERNATE MINIMUMS

Departures
Chart Name Download
JORJO FIVE (RNAV)
JORJO FIVE (RNAV), CONT.1
MONKZ FIVE (RNAV)
MONKZ FIVE (RNAV), CONT.1

Arrivals
Chart Name Download
GOPAC TWO (RNAV)

Approaches
Chart Name Download
ILS OR LOC RWY 23
RNAV (GPS) RWY 05
RNAV (GPS) RWY 23